Sodak Park, South Dakota
Current Conditions -  °F | °C
As of 12:37 PM on Sunday 23 Nov 2014 (Local Time) from KVVV Reporting Station
Overcast Overcast  
Wind Chill: 32°   Ceiling: 4200
Heat Index: 39°   Visibility: 10mi
Dew Point: 32°   Wind: 12mph
Humidity: 75%   Direction: 290°WNW
Pressure: 29.48"   Gusts: NA
Location:  45.4152°N, 96.8664°W
Report Text: KVVV 231837Z AUTO 29010KT 10SM OVC042 04/00 A2948 RMK AO2
Loading
Personal Weather Stations






























Interactive Weather Map New forecast layout! Learn more

10-Day Weather Forecast

Advertisements
Track Severe Weather on mobile